createdAt,value
2022-11-24T00:00:33.498Z,97102.16
2022-11-24T00:03:39.972Z,97111.41
2022-11-24T00:06:49.454Z,97114.91
2022-11-24T00:09:55.420Z,97120.47
2022-11-24T00:13:02.353Z,97122.53
2022-11-24T00:16:14.739Z,97114.22
2022-11-24T00:19:21.883Z,97134.69
2022-11-24T00:22:30.507Z,97139.28
2022-11-24T00:25:38.096Z,97141.00
2022-11-24T00:28:46.926Z,97138.94
2022-11-24T00:31:53.942Z,97136.34
2022-11-24T00:35:00.030Z,97147.22
2022-11-24T00:38:09.507Z,97157.41
2022-11-24T00:41:16.566Z,97156.19
2022-11-24T00:44:23.324Z,97150.72
2022-11-24T00:47:29.742Z,97155.59
2022-11-24T00:50:36.626Z,97159.38
2022-11-24T00:53:45.691Z,97156.28
2022-11-24T00:56:52.627Z,97158.34
2022-11-24T00:59:58.635Z,97161.59
2022-11-24T01:03:05.418Z,97161.97
2022-11-24T01:06:16.756Z,97161.66
2022-11-24T01:09:27.167Z,97162.25
2022-11-24T01:12:33.054Z,97167.22
2022-11-24T01:15:40.274Z,97168.31
2022-11-24T01:18:46.516Z,97168.75
2022-11-24T01:21:53.562Z,97173.94
2022-11-24T01:25:02.286Z,97176.75
2022-11-24T01:28:09.388Z,97173.34
2022-11-24T01:31:16.479Z,97180.97
2022-11-24T01:34:23.393Z,97178.91
2022-11-24T01:37:29.523Z,97176.69
2022-11-24T01:40:38.857Z,97180.63
2022-11-24T01:43:46.987Z,97177.56
2022-11-24T01:47:00.860Z,97187.72
2022-11-24T01:50:13.356Z,97169.00
2022-11-24T01:53:20.186Z,97186.53
2022-11-24T01:56:31.549Z,97183.53
2022-11-24T01:59:39.652Z,97186.94
2022-11-24T02:02:48.404Z,97189.50
2022-11-24T02:06:07.712Z,97190.03
2022-11-24T02:09:25.110Z,97171.06
2022-11-24T02:12:36.548Z,97178.25
2022-11-24T02:15:42.531Z,97193.88
2022-11-24T02:18:50.015Z,97180.75
2022-11-24T02:21:57.045Z,97190.72
2022-11-24T02:25:16.810Z,97187.47
2022-11-24T02:28:32.921Z,97191.13
2022-11-24T02:31:39.137Z,97181.44
2022-11-24T02:34:45.993Z,97182.09
2022-11-24T02:37:52.176Z,97188.69
2022-11-24T02:40:59.147Z,97181.28
2022-11-24T02:44:08.704Z,97191.13
2022-11-24T02:47:16.944Z,97176.25
2022-11-24T02:50:22.935Z,97189.88
2022-11-24T02:53:29.856Z,97189.88
2022-11-24T02:56:35.904Z,97189.06
2022-11-24T02:59:45.291Z,97181.16
2022-11-24T03:02:51.421Z,97185.06
2022-11-24T03:05:58.496Z,97193.88
2022-11-24T03:09:04.744Z,97184.88
2022-11-24T03:12:11.780Z,97182.34
2022-11-24T03:15:20.442Z,97182.94
2022-11-24T03:18:27.167Z,97188.84
2022-11-24T03:21:33.558Z,97193.38
2022-11-24T03:24:40.400Z,97192.25
2022-11-24T03:27:46.952Z,97193.06
2022-11-24T03:30:56.349Z,97196.56
2022-11-24T03:34:02.297Z,97198.56
2022-11-24T03:37:09.129Z,97208.41
2022-11-24T03:40:15.884Z,97198.03
2022-11-24T03:43:22.797Z,97200.47
2022-11-24T03:46:31.393Z,97207.72
2022-11-24T03:49:38.167Z,97204.94
2022-11-24T03:52:44.058Z,97215.19
2022-11-24T03:55:50.913Z,97211.00
2022-11-24T03:58:56.972Z,97217.56
2022-11-24T04:02:08.114Z,97221.63
2022-11-24T04:05:14.141Z,97217.13
2022-11-24T04:08:22.071Z,97224.63
2022-11-24T04:11:40.258Z,97222.25
2022-11-24T04:14:46.984Z,97212.84
2022-11-24T04:18:00.604Z,97218.44
2022-11-24T04:21:07.588Z,97215.19
2022-11-24T04:24:13.855Z,97217.97
2022-11-24T04:27:20.743Z,97224.22
2022-11-24T04:30:30.739Z,97231.78
2022-11-24T04:33:40.205Z,97232.16
2022-11-24T04:36:46.125Z,97240.63
2022-11-24T04:39:52.932Z,97227.28
2022-11-24T04:42:59.188Z,97231.50
2022-11-24T04:46:06.574Z,97217.63
2022-11-24T04:49:15.228Z,97245.78
2022-11-24T04:52:25.355Z,97245.78
2022-11-24T04:55:32.381Z,97258.75
2022-11-24T04:58:39.552Z,97255.63
2022-11-24T05:01:45.798Z,97261.75
2022-11-24T05:04:55.384Z,97263.41
2022-11-24T05:08:02.756Z,97269.94
2022-11-24T05:11:10.991Z,97271.31
2022-11-24T05:14:16.915Z,97264.75
2022-11-24T05:17:23.733Z,97269.47
2022-11-24T05:20:32.253Z,97260.59
2022-11-24T05:23:39.414Z,97264.59
2022-11-24T05:26:47.314Z,97263.09
2022-11-24T05:29:54.007Z,97272.28
2022-11-24T05:33:00.387Z,97274.88
2022-11-24T05:36:31.614Z,97266.19
2022-11-24T05:39:38.937Z,97281.16
2022-11-24T05:42:48.232Z,97283.81
2022-11-24T05:45:54.317Z,97266.84
2022-11-24T05:49:01.088Z,97285.38
2022-11-24T05:52:10.539Z,97250.69
2022-11-24T05:55:19.741Z,97293.69
2022-11-24T05:58:25.606Z,97302.53
2022-11-24T06:01:32.293Z,97301.22
2022-11-24T06:04:38.184Z,97308.63
2022-11-24T06:07:47.601Z,97306.03
2022-11-24T06:10:53.587Z,97315.94
2022-11-24T06:14:00.503Z,97304.78
2022-11-24T06:17:09.397Z,97318.94
2022-11-24T06:20:16.133Z,97319.06
2022-11-24T06:23:24.586Z,97330.25
2022-11-24T06:26:31.913Z,97329.44
2022-11-24T06:29:40.157Z,97335.56
2022-11-24T06:32:49.952Z,97342.66
2022-11-24T06:35:56.075Z,97340.50
2022-11-24T06:39:08.630Z,97346.63
2022-11-24T06:42:18.830Z,97345.56
2022-11-24T06:45:25.638Z,97336.28
2022-11-24T06:48:32.629Z,97346.22
2022-11-24T06:51:39.431Z,97350.44
2022-11-24T06:54:47.917Z,97356.59
2022-11-24T06:57:54.593Z,97356.88
2022-11-24T07:01:00.465Z,97349.53
2022-11-24T07:04:07.727Z,97362.19
2022-11-24T07:07:13.699Z,97340.28
2022-11-24T07:10:23.536Z,97352.09
2022-11-24T07:13:30.477Z,97357.81
2022-11-24T07:16:37.840Z,97367.31
2022-11-24T07:19:43.810Z,97368.97
2022-11-24T07:22:50.476Z,97381.94
2022-11-24T07:26:03.715Z,97377.19
2022-11-24T07:29:13.154Z,97364.31
2022-11-24T07:32:19.197Z,97387.06
2022-11-24T07:35:26.702Z,97378.25
2022-11-24T07:38:33.301Z,97389.41
2022-11-24T07:41:42.702Z,97375.91
2022-11-24T07:44:48.823Z,97385.72
2022-11-24T07:47:55.451Z,97386.16
2022-11-24T07:51:02.958Z,97385.19
2022-11-24T07:54:09.727Z,97390.50
2022-11-24T07:57:18.214Z,97390.66
2022-11-24T08:00:25.059Z,97391.47
2022-11-24T08:03:31.102Z,97398.97
2022-11-24T08:06:42.091Z,97406.31
2022-11-24T08:09:52.798Z,97401.94
2022-11-24T08:13:04.000Z,97410.41
2022-11-24T08:16:15.198Z,97417.66
2022-11-24T08:19:22.019Z,97418.06
2022-11-24T08:22:27.971Z,97416.81
2022-11-24T08:25:35.208Z,97422.16
2022-11-24T08:28:43.899Z,97430.31
2022-11-24T08:31:50.642Z,97434.28
2022-11-24T08:35:13.008Z,97430.50
2022-11-24T08:38:20.529Z,97432.91
2022-11-24T08:41:28.204Z,97442.75
2022-11-24T08:44:37.833Z,97439.88
2022-11-24T08:47:43.789Z,97439.75
2022-11-24T08:50:50.440Z,97451.84
2022-11-24T08:53:59.013Z,97449.00
2022-11-24T08:57:05.742Z,97456.34
2022-11-24T09:00:22.705Z,97453.63
2022-11-24T09:03:29.649Z,97460.56
2022-11-24T09:06:35.529Z,97456.63
2022-11-24T09:09:42.244Z,97452.13
2022-11-24T09:12:48.909Z,97458.28
2022-11-24T09:15:58.330Z,97441.78
2022-11-24T09:19:08.268Z,97453.63
2022-11-24T09:22:14.921Z,97415.50
2022-11-24T09:25:21.221Z,97457.31
2022-11-24T09:28:27.822Z,97460.72
2022-11-24T09:31:40.343Z,97462.88
2022-11-24T09:34:46.996Z,97459.47
2022-11-24T09:37:52.996Z,97455.50
2022-11-24T09:41:23.490Z,97455.22
2022-11-24T09:45:04.832Z,97453.72
2022-11-24T09:48:27.074Z,97455.34
2022-11-24T09:51:37.029Z,97425.25
2022-11-24T09:55:00.523Z,97447.00
2022-11-24T09:58:24.776Z,97452.19
2022-11-24T10:01:37.240Z,97442.94
2022-11-24T10:04:50.773Z,97427.44
2022-11-24T10:08:21.451Z,97454.78
2022-11-24T10:11:41.616Z,97452.19
2022-11-24T10:15:28.956Z,97452.19
2022-11-24T10:18:53.547Z,97452.19
2022-11-24T10:22:29.046Z,97460.63
2022-11-24T10:25:51.332Z,97456.69
2022-11-24T10:28:59.581Z,97446.50
2022-11-24T10:32:18.151Z,97460.94
2022-11-24T10:35:32.544Z,97462.03
2022-11-24T10:38:56.574Z,97462.72
2022-11-24T10:42:17.414Z,97457.94
2022-11-24T10:45:25.927Z,97462.41
2022-11-24T10:48:45.884Z,97468.56
2022-11-24T10:52:07.275Z,97470.75
2022-11-24T10:55:16.955Z,97469.13
2022-11-24T10:58:34.421Z,97467.47
2022-11-24T11:01:44.313Z,97474.16
2022-11-24T11:04:50.311Z,97459.44
2022-11-24T11:12:43.851Z,97469.91
2022-11-24T11:15:51.495Z,97466.78
2022-11-24T11:18:57.911Z,97435.97
2022-11-24T11:22:09.389Z,97466.75
2022-11-24T11:25:27.942Z,97469.16
2022-11-24T11:28:37.244Z,97466.28
2022-11-24T11:34:02.735Z,97458.50
2022-11-24T11:35:16.388Z,97462.34
2022-11-24T11:38:23.947Z,97468.75
2022-11-24T11:41:38.878Z,97466.66
2022-11-24T11:44:57.384Z,97463.56
2022-11-24T11:48:28.569Z,97467.06
2022-11-24T11:51:56.905Z,97469.75
2022-11-24T11:55:36.768Z,97472.75
2022-11-24T11:59:17.421Z,97472.31
2022-11-24T12:03:07.456Z,97475.53
2022-11-24T12:06:41.147Z,97482.34
2022-11-24T12:10:11.224Z,97485.81
2022-11-24T12:13:58.076Z,97484.84
2022-11-24T12:17:23.187Z,97481.28
2022-11-24T12:20:55.997Z,97486.41
2022-11-24T12:24:20.828Z,97482.34
2022-11-24T12:27:47.433Z,97480.91
2022-11-24T12:31:08.834Z,97485.56
2022-11-24T12:34:35.482Z,97489.84
2022-11-24T12:38:08.899Z,97485.47
2022-11-24T12:41:44.139Z,97485.88
2022-11-24T12:45:16.040Z,97456.63
2022-11-24T12:48:56.293Z,97496.81
2022-11-24T12:52:22.682Z,97495.03
2022-11-24T12:55:36.501Z,97501.34
2022-11-24T12:58:56.772Z,97474.25
2022-11-24T13:02:26.668Z,97503.44
2022-11-24T13:05:47.969Z,97512.56
2022-11-24T13:08:54.290Z,97497.63
2022-11-24T13:12:16.775Z,97516.81
2022-11-24T13:15:44.634Z,97512.31
2022-11-24T13:18:58.607Z,97517.50
2022-11-24T13:22:28.699Z,97515.56
2022-11-24T13:25:38.130Z,97514.22
2022-11-24T13:29:18.388Z,97520.88
2022-11-24T13:33:25.731Z,97525.38
2022-11-24T13:36:56.717Z,97531.38
2022-11-24T13:41:12.987Z,97533.69
2022-11-24T13:44:29.560Z,97548.44
2022-11-24T13:47:47.033Z,97539.00
2022-11-24T13:51:25.704Z,97555.13
2022-11-24T13:54:33.002Z,97552.78
2022-11-24T13:57:44.329Z,97559.50
2022-11-24T14:01:13.699Z,97563.03
2022-11-24T14:04:30.934Z,97561.91
2022-11-24T14:07:38.667Z,97561.78
2022-11-24T14:10:46.618Z,97569.19
2022-11-24T14:13:53.409Z,97573.50
2022-11-24T14:17:30.009Z,97583.63
2022-11-24T14:20:36.884Z,97574.59
2022-11-24T14:23:46.372Z,97587.69
2022-11-24T14:26:54.884Z,97590.16
2022-11-24T14:30:03.632Z,97599.41
2022-11-24T14:33:16.198Z,97597.50
2022-11-24T14:36:22.292Z,97593.41
2022-11-24T14:39:31.462Z,97610.19
2022-11-24T14:42:37.398Z,97604.59
2022-11-24T14:45:55.369Z,97604.34
2022-11-24T14:49:05.612Z,97608.31
2022-11-24T14:52:20.838Z,97622.06
2022-11-24T14:55:31.595Z,97618.53
2022-11-24T14:58:42.174Z,97621.69
2022-11-24T15:01:48.944Z,97629.16
2022-11-24T15:05:04.698Z,97611.16
2022-11-24T15:08:18.529Z,97629.03
2022-11-24T15:11:25.814Z,97631.88
2022-11-24T15:14:55.203Z,97629.56
2022-11-24T15:18:04.360Z,97631.75
2022-11-24T15:21:19.302Z,97638.28
2022-11-24T15:24:27.459Z,97636.50
2022-11-24T15:27:33.554Z,97632.81
2022-11-24T15:30:41.508Z,97616.31
2022-11-24T15:33:47.592Z,97637.28
2022-11-24T15:36:57.089Z,97650.69
2022-11-24T15:40:03.138Z,97653.81
2022-11-24T15:43:30.700Z,97629.03
2022-11-24T15:46:38.708Z,97659.03
2022-11-24T15:49:45.896Z,97661.34
2022-11-24T15:52:54.930Z,97659.84
2022-11-24T15:56:05.512Z,97665.84
2022-11-24T15:59:20.636Z,97668.97
2022-11-24T16:02:29.271Z,97673.34
2022-11-24T16:05:36.740Z,97676.75
2022-11-24T16:08:46.475Z,97678.00
2022-11-24T16:11:52.583Z,97664.78
2022-11-24T16:14:59.489Z,97688.91
2022-11-24T16:18:07.058Z,97689.59
2022-11-24T16:21:15.607Z,97683.44
2022-11-24T16:24:24.624Z,97684.97
2022-11-24T16:27:31.720Z,97690.16
2022-11-24T16:30:38.386Z,97686.31
2022-11-24T16:33:45.205Z,97685.09
2022-11-24T16:36:51.206Z,97701.88
2022-11-24T16:40:02.636Z,97698.03
2022-11-24T16:43:08.768Z,97702.81
2022-11-24T16:46:23.808Z,97708.38
2022-11-24T16:49:29.970Z,97700.59
2022-11-24T16:52:37.047Z,97701.56
2022-11-24T16:55:45.729Z,97702.94
2022-11-24T16:58:52.762Z,97712.22
2022-11-24T17:02:00.327Z,97714.28
2022-11-24T17:05:07.743Z,97705.16
2022-11-24T17:08:13.743Z,97712.09
2022-11-24T17:11:26.953Z,97720.03
2022-11-24T17:14:33.404Z,97727.53
2022-11-24T17:18:01.330Z,97734.06
2022-11-24T17:21:09.694Z,97724.25
2022-11-24T17:24:18.311Z,97738.31
2022-11-24T17:27:26.850Z,97739.13
2022-11-24T17:30:33.765Z,97739.00
2022-11-24T17:33:40.647Z,97735.69
2022-11-24T17:36:47.469Z,97742.53
2022-11-24T17:40:12.849Z,97745.00
2022-11-24T17:43:23.081Z,97755.38
2022-11-24T17:46:31.378Z,97761.13
2022-11-24T17:49:38.411Z,97767.13
2022-11-24T17:52:44.460Z,97765.09
2022-11-24T17:55:52.442Z,97766.88
2022-11-24T17:59:03.773Z,97766.31
2022-11-24T18:02:12.926Z,97774.09
2022-11-24T18:05:19.434Z,97772.88
2022-11-24T18:08:26.988Z,97779.81
2022-11-24T18:11:35.062Z,97741.31
2022-11-24T18:14:44.992Z,97775.72
2022-11-24T18:17:55.473Z,97782.81
2022-11-24T18:21:04.810Z,97778.59
2022-11-24T18:24:12.190Z,97796.34
2022-11-24T18:27:21.783Z,97792.78
2022-11-24T18:30:30.737Z,97805.22
2022-11-24T18:33:40.796Z,97799.88
2022-11-24T18:36:52.191Z,97808.09
2022-11-24T18:39:59.501Z,97807.28
2022-11-24T18:43:05.695Z,97805.38
2022-11-24T18:46:18.772Z,97802.34
2022-11-24T18:49:25.083Z,97810.94
2022-11-24T18:52:32.185Z,97813.16
2022-11-24T18:55:39.251Z,97817.91
2022-11-24T18:58:47.806Z,97815.19
2022-11-24T19:01:56.760Z,97808.09
2022-11-24T19:05:03.832Z,97820.38
2022-11-24T19:08:09.995Z,97826.94
2022-11-24T19:11:22.501Z,97838.56
2022-11-24T19:14:28.846Z,97832.94
2022-11-24T19:17:38.299Z,97841.41
2022-11-24T19:20:44.333Z,97853.44
2022-11-24T19:23:51.278Z,97848.25
2022-11-24T19:26:57.422Z,97844.56
2022-11-24T19:30:04.279Z,97847.16
2022-11-24T19:33:14.104Z,97848.69
2022-11-24T19:36:24.837Z,97854.00
2022-11-24T19:39:31.128Z,97847.03
2022-11-24T19:42:38.756Z,97854.38
2022-11-24T19:45:45.217Z,97859.72
2022-11-24T19:48:57.318Z,97853.19
2022-11-24T19:52:03.307Z,97864.38
2022-11-24T19:55:11.678Z,97855.22
2022-11-24T19:58:18.201Z,97863.00
2022-11-24T20:01:28.473Z,97856.03
2022-11-24T20:04:39.979Z,97862.47
2022-11-24T20:07:46.970Z,97856.28
2022-11-24T20:10:53.104Z,97846.88
2022-11-24T20:14:02.299Z,97858.06
2022-11-24T20:17:08.603Z,97869.16
2022-11-24T20:20:19.597Z,97873.25
2022-11-24T20:23:25.989Z,97880.34
2022-11-24T20:26:36.826Z,97878.44
2022-11-24T20:29:47.064Z,97878.44
2022-11-24T20:32:54.071Z,97895.38
2022-11-24T20:36:06.478Z,97879.78
2022-11-24T20:39:19.093Z,97883.75
2022-11-24T20:42:25.227Z,97883.06
2022-11-24T20:45:32.221Z,97889.50
2022-11-24T20:48:40.661Z,97897.56
2022-11-24T20:51:55.033Z,97875.00
2022-11-24T20:55:04.082Z,97890.03
2022-11-24T20:58:11.578Z,97903.84
2022-11-24T21:01:22.105Z,97903.00
2022-11-24T21:04:30.714Z,97900.28
2022-11-24T21:11:08.669Z,97904.91
2022-11-24T21:14:16.152Z,97900.44
2022-11-24T21:17:23.683Z,97903.13
2022-11-24T21:20:30.289Z,97907.75
2022-11-24T21:23:37.860Z,97902.16
2022-11-24T21:26:51.906Z,97902.16
2022-11-24T21:29:58.840Z,97907.88
2022-11-24T21:33:05.583Z,97917.16
2022-11-24T21:36:14.807Z,97917.50
2022-11-24T21:39:21.031Z,97914.59
2022-11-24T21:42:30.948Z,97917.97
2022-11-24T21:45:40.004Z,97924.22
2022-11-24T21:48:47.161Z,97885.53
2022-11-24T21:51:56.175Z,97926.88
2022-11-24T21:55:03.844Z,97926.59
2022-11-24T21:58:12.468Z,97929.59
2022-11-24T22:01:22.489Z,97929.75
2022-11-24T22:04:28.585Z,97943.66
2022-11-24T22:07:35.918Z,97936.69
2022-11-24T22:10:41.980Z,97939.16
2022-11-24T22:13:53.274Z,97933.56
2022-11-24T22:16:59.306Z,97940.25
2022-11-24T22:20:06.316Z,97939.28
2022-11-24T22:23:12.314Z,97948.47
2022-11-24T22:26:21.985Z,97945.47
2022-11-24T22:29:30.459Z,97946.28
2022-11-24T22:32:40.650Z,97950.66
2022-11-24T22:35:46.650Z,97958.16
2022-11-24T22:38:57.707Z,97946.16
2022-11-24T22:42:03.643Z,97950.66
2022-11-24T22:45:14.290Z,97951.06
2022-11-24T22:48:20.299Z,97963.69
2022-11-24T22:51:31.450Z,97960.41
2022-11-24T22:54:37.619Z,97966.53
2022-11-24T22:57:48.084Z,97964.75
2022-11-24T23:00:57.214Z,97964.75
2022-11-24T23:04:05.342Z,97955.47
2022-11-24T23:07:11.438Z,97960.97
2022-11-24T23:10:18.436Z,97963.84
2022-11-24T23:13:24.397Z,97966.09
2022-11-24T23:16:34.369Z,97965.56
2022-11-24T23:19:40.323Z,97967.78
2022-11-24T23:22:47.107Z,97958.22
2022-11-24T23:25:53.078Z,97960.38
2022-11-24T23:28:59.905Z,97961.72
2022-11-24T23:32:09.276Z,97960.06
2022-11-24T23:35:15.941Z,97971.97
2022-11-24T23:38:21.885Z,97962.28
2022-11-24T23:41:29.290Z,97962.13
2022-11-24T23:44:35.591Z,97965.41
2022-11-24T23:47:45.163Z,97976.25
2022-11-24T23:50:51.190Z,97971.63
2022-11-24T23:53:58.727Z,97977.88
2022-11-24T23:57:04.645Z,97978.94
